sensor_id;sensor_type;location;lat;lon;timestamp;P1;durP1;ratioP1;P2;durP2;ratioP2
21334;SDS011;69435;52.670;13.544;2023-12-04T00:00:05;13.87;;;7.63;;
21334;SDS011;69435;52.670;13.544;2023-12-04T00:02:52;14.27;;;7.73;;
21334;SDS011;69435;52.670;13.544;2023-12-04T00:05:41;15.17;;;7.53;;
21334;SDS011;69435;52.670;13.544;2023-12-04T00:08:28;13.70;;;7.47;;
21334;SDS011;69435;52.670;13.544;2023-12-04T00:11:15;13.30;;;7.50;;
21334;SDS011;69435;52.670;13.544;2023-12-04T00:14:01;15.57;;;7.53;;
21334;SDS011;69435;52.670;13.544;2023-12-04T00:16:47;15.57;;;7.40;;
21334;SDS011;69435;52.670;13.544;2023-12-04T00:19:33;13.60;;;7.23;;
21334;SDS011;69435;52.670;13.544;2023-12-04T00:22:19;13.07;;;7.27;;
21334;SDS011;69435;52.670;13.544;2023-12-04T00:25:05;10.87;;;6.90;;
21334;SDS011;69435;52.670;13.544;2023-12-04T00:27:52;11.77;;;7.17;;
21334;SDS011;69435;52.670;13.544;2023-12-04T00:30:38;15.47;;;8.33;;
21334;SDS011;69435;52.670;13.544;2023-12-04T00:33:24;10.00;;;7.23;;
21334;SDS011;69435;52.670;13.544;2023-12-04T00:36:10;13.13;;;7.07;;
21334;SDS011;69435;52.670;13.544;2023-12-04T00:38:57;16.70;;;7.53;;
21334;SDS011;69435;52.670;13.544;2023-12-04T00:41:43;10.77;;;7.43;;
21334;SDS011;69435;52.670;13.544;2023-12-04T00:44:29;12.00;;;6.83;;
21334;SDS011;69435;52.670;13.544;2023-12-04T00:47:15;15.77;;;7.50;;
21334;SDS011;69435;52.670;13.544;2023-12-04T00:50:01;12.87;;;7.80;;
21334;SDS011;69435;52.670;13.544;2023-12-04T00:52:47;13.53;;;7.00;;
21334;SDS011;69435;52.670;13.544;2023-12-04T00:55:33;11.43;;;6.53;;
21334;SDS011;69435;52.670;13.544;2023-12-04T00:58:19;9.20;;;6.30;;
21334;SDS011;69435;52.670;13.544;2023-12-04T01:01:05;10.13;;;6.10;;
21334;SDS011;69435;52.670;13.544;2023-12-04T01:03:51;14.47;;;7.87;;
21334;SDS011;69435;52.670;13.544;2023-12-04T01:06:37;14.13;;;6.53;;
21334;SDS011;69435;52.670;13.544;2023-12-04T01:09:23;13.30;;;6.27;;
21334;SDS011;69435;52.670;13.544;2023-12-04T01:12:10;18.20;;;6.97;;
21334;SDS011;69435;52.670;13.544;2023-12-04T01:14:56;13.83;;;7.00;;
21334;SDS011;69435;52.670;13.544;2023-12-04T01:17:42;14.53;;;6.17;;
21334;SDS011;69435;52.670;13.544;2023-12-04T01:20:28;11.47;;;7.43;;
21334;SDS011;69435;52.670;13.544;2023-12-04T01:23:14;9.17;;;5.83;;
21334;SDS011;69435;52.670;13.544;2023-12-04T01:26:01;12.27;;;6.73;;
21334;SDS011;69435;52.670;13.544;2023-12-04T01:28:49;10.87;;;5.83;;
21334;SDS011;69435;52.670;13.544;2023-12-04T01:31:35;10.17;;;5.60;;
21334;SDS011;69435;52.670;13.544;2023-12-04T01:34:21;13.33;;;6.60;;
21334;SDS011;69435;52.670;13.544;2023-12-04T01:37:07;14.03;;;6.80;;
21334;SDS011;69435;52.670;13.544;2023-12-04T01:39:54;7.87;;;5.87;;
21334;SDS011;69435;52.670;13.544;2023-12-04T01:42:40;11.77;;;5.97;;
21334;SDS011;69435;52.670;13.544;2023-12-04T01:45:28;9.50;;;5.13;;
21334;SDS011;69435;52.670;13.544;2023-12-04T01:48:14;13.43;;;6.40;;
21334;SDS011;69435;52.670;13.544;2023-12-04T01:51:01;9.60;;;5.33;;
21334;SDS011;69435;52.670;13.544;2023-12-04T01:53:53;9.03;;;6.17;;
21334;SDS011;69435;52.670;13.544;2023-12-04T01:56:42;12.50;;;7.27;;
21334;SDS011;69435;52.670;13.544;2023-12-04T01:59:29;9.87;;;6.53;;
21334;SDS011;69435;52.670;13.544;2023-12-04T02:02:15;13.20;;;6.40;;
21334;SDS011;69435;52.670;13.544;2023-12-04T02:05:02;16.73;;;7.73;;
21334;SDS011;69435;52.670;13.544;2023-12-04T02:07:50;13.47;;;6.70;;
21334;SDS011;69435;52.670;13.544;2023-12-04T02:10:38;14.47;;;6.90;;
21334;SDS011;69435;52.670;13.544;2023-12-04T02:13:24;12.33;;;6.97;;
21334;SDS011;69435;52.670;13.544;2023-12-04T02:16:16;17.07;;;6.87;;
21334;SDS011;69435;52.670;13.544;2023-12-04T02:19:08;15.30;;;7.10;;
21334;SDS011;69435;52.670;13.544;2023-12-04T02:21:57;13.53;;;6.47;;
21334;SDS011;69435;52.670;13.544;2023-12-04T02:24:46;11.10;;;6.13;;
21334;SDS011;69435;52.670;13.544;2023-12-04T02:27:43;12.50;;;7.80;;
21334;SDS011;69435;52.670;13.544;2023-12-04T02:30:36;14.53;;;7.50;;
21334;SDS011;69435;52.670;13.544;2023-12-04T02:33:23;13.73;;;6.97;;
21334;SDS011;69435;52.670;13.544;2023-12-04T02:36:12;22.57;;;8.67;;
21334;SDS011;69435;52.670;13.544;2023-12-04T02:39:00;14.77;;;7.53;;
21334;SDS011;69435;52.670;13.544;2023-12-04T02:41:47;15.43;;;8.33;;
21334;SDS011;69435;52.670;13.544;2023-12-04T02:44:34;10.97;;;6.83;;
21334;SDS011;69435;52.670;13.544;2023-12-04T02:47:20;14.03;;;7.33;;
21334;SDS011;69435;52.670;13.544;2023-12-04T02:50:06;10.43;;;6.93;;
21334;SDS011;69435;52.670;13.544;2023-12-04T02:52:53;15.97;;;8.00;;
21334;SDS011;69435;52.670;13.544;2023-12-04T02:55:39;14.70;;;8.07;;
21334;SDS011;69435;52.670;13.544;2023-12-04T02:58:25;18.40;;;8.47;;
21334;SDS011;69435;52.670;13.544;2023-12-04T03:01:11;18.27;;;9.53;;
21334;SDS011;69435;52.670;13.544;2023-12-04T03:03:57;20.13;;;10.03;;
21334;SDS011;69435;52.670;13.544;2023-12-04T03:06:43;20.17;;;9.23;;
21334;SDS011;69435;52.670;13.544;2023-12-04T03:09:29;20.50;;;8.60;;
21334;SDS011;69435;52.670;13.544;2023-12-04T03:12:16;17.77;;;9.70;;
21334;SDS011;69435;52.670;13.544;2023-12-04T03:15:03;23.30;;;9.33;;
21334;SDS011;69435;52.670;13.544;2023-12-04T03:17:50;14.97;;;8.33;;
21334;SDS011;69435;52.670;13.544;2023-12-04T03:20:37;17.30;;;8.10;;
21334;SDS011;69435;52.670;13.544;2023-12-04T03:23:23;16.67;;;8.17;;
21334;SDS011;69435;52.670;13.544;2023-12-04T03:26:09;20.27;;;8.43;;
21334;SDS011;69435;52.670;13.544;2023-12-04T03:28:55;19.67;;;9.13;;
21334;SDS011;69435;52.670;13.544;2023-12-04T03:31:41;19.53;;;8.73;;
21334;SDS011;69435;52.670;13.544;2023-12-04T03:34:28;20.60;;;9.67;;
21334;SDS011;69435;52.670;13.544;2023-12-04T03:37:14;21.60;;;9.23;;
21334;SDS011;69435;52.670;13.544;2023-12-04T03:40:00;12.60;;;8.17;;
21334;SDS011;69435;52.670;13.544;2023-12-04T03:42:46;20.10;;;7.87;;
21334;SDS011;69435;52.670;13.544;2023-12-04T03:45:32;20.17;;;9.47;;
21334;SDS011;69435;52.670;13.544;2023-12-04T03:48:18;19.93;;;9.30;;
21334;SDS011;69435;52.670;13.544;2023-12-04T03:51:04;20.53;;;10.03;;
21334;SDS011;69435;52.670;13.544;2023-12-04T03:53:51;18.70;;;8.97;;
21334;SDS011;69435;52.670;13.544;2023-12-04T03:56:37;18.63;;;9.53;;
21334;SDS011;69435;52.670;13.544;2023-12-04T03:59:23;16.37;;;7.07;;
21334;SDS011;69435;52.670;13.544;2023-12-04T04:02:09;23.43;;;9.63;;
21334;SDS011;69435;52.670;13.544;2023-12-04T04:04:55;17.87;;;8.23;;
21334;SDS011;69435;52.670;13.544;2023-12-04T04:07:42;15.67;;;8.53;;
21334;SDS011;69435;52.670;13.544;2023-12-04T04:10:29;18.63;;;8.43;;
21334;SDS011;69435;52.670;13.544;2023-12-04T04:13:24;14.97;;;8.53;;
21334;SDS011;69435;52.670;13.544;2023-12-04T04:16:16;18.00;;;8.13;;
21334;SDS011;69435;52.670;13.544;2023-12-04T04:19:02;18.67;;;8.17;;
21334;SDS011;69435;52.670;13.544;2023-12-04T04:21:51;19.70;;;8.70;;
21334;SDS011;69435;52.670;13.544;2023-12-04T04:24:37;19.37;;;8.73;;
21334;SDS011;69435;52.670;13.544;2023-12-04T04:27:23;19.93;;;9.43;;
21334;SDS011;69435;52.670;13.544;2023-12-04T04:30:10;15.77;;;8.63;;
21334;SDS011;69435;52.670;13.544;2023-12-04T04:32:58;21.40;;;9.50;;
21334;SDS011;69435;52.670;13.544;2023-12-04T04:35:49;21.93;;;9.37;;
21334;SDS011;69435;52.670;13.544;2023-12-04T04:38:35;20.10;;;9.60;;
21334;SDS011;69435;52.670;13.544;2023-12-04T04:41:22;21.47;;;8.90;;
21334;SDS011;69435;52.670;13.544;2023-12-04T04:44:08;16.27;;;8.23;;
21334;SDS011;69435;52.670;13.544;2023-12-04T04:46:54;19.40;;;10.27;;
21334;SDS011;69435;52.670;13.544;2023-12-04T04:49:40;22.43;;;9.93;;
21334;SDS011;69435;52.670;13.544;2023-12-04T04:52:27;24.50;;;9.47;;
21334;SDS011;69435;52.670;13.544;2023-12-04T04:55:13;19.37;;;9.90;;
21334;SDS011;69435;52.670;13.544;2023-12-04T04:57:59;17.27;;;8.73;;
21334;SDS011;69435;52.670;13.544;2023-12-04T05:00:46;23.37;;;10.50;;
21334;SDS011;69435;52.670;13.544;2023-12-04T05:03:34;28.50;;;11.10;;
21334;SDS011;69435;52.670;13.544;2023-12-04T05:06:20;21.63;;;10.53;;
21334;SDS011;69435;52.670;13.544;2023-12-04T05:09:07;19.50;;;9.80;;
21334;SDS011;69435;52.670;13.544;2023-12-04T05:11:54;20.47;;;9.47;;
21334;SDS011;69435;52.670;13.544;2023-12-04T05:14:40;27.83;;;12.33;;
21334;SDS011;69435;52.670;13.544;2023-12-04T05:17:26;19.07;;;9.60;;
21334;SDS011;69435;52.670;13.544;2023-12-04T05:20:12;19.17;;;9.10;;
21334;SDS011;69435;52.670;13.544;2023-12-04T05:22:58;22.47;;;9.00;;
21334;SDS011;69435;52.670;13.544;2023-12-04T05:25:44;17.47;;;8.70;;
21334;SDS011;69435;52.670;13.544;2023-12-04T05:28:30;20.47;;;8.80;;
21334;SDS011;69435;52.670;13.544;2023-12-04T05:31:16;15.60;;;8.63;;
21334;SDS011;69435;52.670;13.544;2023-12-04T05:34:02;19.43;;;9.43;;
21334;SDS011;69435;52.670;13.544;2023-12-04T05:36:48;30.93;;;9.53;;
21334;SDS011;69435;52.670;13.544;2023-12-04T05:39:34;21.60;;;9.37;;
21334;SDS011;69435;52.670;13.544;2023-12-04T05:42:20;21.80;;;9.17;;
21334;SDS011;69435;52.670;13.544;2023-12-04T05:45:06;20.10;;;9.97;;
21334;SDS011;69435;52.670;13.544;2023-12-04T05:47:53;17.83;;;9.07;;
21334;SDS011;69435;52.670;13.544;2023-12-04T05:50:39;26.80;;;10.17;;
21334;SDS011;69435;52.670;13.544;2023-12-04T05:53:26;22.97;;;9.83;;
21334;SDS011;69435;52.670;13.544;2023-12-04T05:56:12;15.87;;;8.53;;
21334;SDS011;69435;52.670;13.544;2023-12-04T05:58:58;19.93;;;9.13;;
21334;SDS011;69435;52.670;13.544;2023-12-04T06:01:44;20.93;;;8.90;;
21334;SDS011;69435;52.670;13.544;2023-12-04T06:04:30;25.37;;;10.87;;
21334;SDS011;69435;52.670;13.544;2023-12-04T06:07:16;16.67;;;9.20;;
21334;SDS011;69435;52.670;13.544;2023-12-04T06:10:02;15.47;;;8.40;;
21334;SDS011;69435;52.670;13.544;2023-12-04T06:12:50;17.80;;;10.50;;
21334;SDS011;69435;52.670;13.544;2023-12-04T06:15:36;19.90;;;8.80;;
21334;SDS011;69435;52.670;13.544;2023-12-04T06:18:22;21.87;;;9.67;;
21334;SDS011;69435;52.670;13.544;2023-12-04T06:21:08;18.73;;;8.47;;
21334;SDS011;69435;52.670;13.544;2023-12-04T06:23:54;25.10;;;9.53;;
21334;SDS011;69435;52.670;13.544;2023-12-04T06:26:42;18.93;;;9.27;;
21334;SDS011;69435;52.670;13.544;2023-12-04T06:29:28;18.23;;;9.07;;
21334;SDS011;69435;52.670;13.544;2023-12-04T06:32:15;21.23;;;10.17;;
21334;SDS011;69435;52.670;13.544;2023-12-04T06:35:02;16.90;;;9.40;;
21334;SDS011;69435;52.670;13.544;2023-12-04T06:37:49;18.00;;;8.20;;
21334;SDS011;69435;52.670;13.544;2023-12-04T06:40:40;16.87;;;9.50;;
21334;SDS011;69435;52.670;13.544;2023-12-04T06:43:27;24.20;;;10.23;;
21334;SDS011;69435;52.670;13.544;2023-12-04T06:46:14;26.83;;;9.93;;
21334;SDS011;69435;52.670;13.544;2023-12-04T06:49:01;17.13;;;9.83;;
21334;SDS011;69435;52.670;13.544;2023-12-04T06:51:49;19.57;;;9.70;;
21334;SDS011;69435;52.670;13.544;2023-12-04T06:54:35;12.63;;;7.63;;
21334;SDS011;69435;52.670;13.544;2023-12-04T06:57:21;20.57;;;9.37;;
21334;SDS011;69435;52.670;13.544;2023-12-04T07:00:07;20.33;;;9.73;;
21334;SDS011;69435;52.670;13.544;2023-12-04T07:02:57;22.57;;;10.60;;
21334;SDS011;69435;52.670;13.544;2023-12-04T07:05:43;23.30;;;9.73;;
21334;SDS011;69435;52.670;13.544;2023-12-04T07:08:29;28.53;;;10.23;;
21334;SDS011;69435;52.670;13.544;2023-12-04T07:11:15;19.17;;;9.27;;
21334;SDS011;69435;52.670;13.544;2023-12-04T07:14:02;26.03;;;10.43;;
21334;SDS011;69435;52.670;13.544;2023-12-04T07:16:48;23.83;;;9.87;;
21334;SDS011;69435;52.670;13.544;2023-12-04T07:19:34;19.50;;;9.60;;
21334;SDS011;69435;52.670;13.544;2023-12-04T07:22:20;29.30;;;11.67;;
21334;SDS011;69435;52.670;13.544;2023-12-04T07:25:07;21.70;;;10.00;;
21334;SDS011;69435;52.670;13.544;2023-12-04T07:27:53;27.77;;;11.40;;
21334;SDS011;69435;52.670;13.544;2023-12-04T07:30:39;22.10;;;10.60;;
21334;SDS011;69435;52.670;13.544;2023-12-04T07:33:25;21.77;;;10.93;;
21334;SDS011;69435;52.670;13.544;2023-12-04T07:36:11;21.80;;;10.13;;
21334;SDS011;69435;52.670;13.544;2023-12-04T07:38:57;23.90;;;11.23;;
21334;SDS011;69435;52.670;13.544;2023-12-04T07:41:44;17.67;;;9.03;;
21334;SDS011;69435;52.670;13.544;2023-12-04T07:44:30;23.70;;;10.27;;
21334;SDS011;69435;52.670;13.544;2023-12-04T07:47:16;25.27;;;10.90;;
21334;SDS011;69435;52.670;13.544;2023-12-04T07:50:02;19.87;;;9.70;;
21334;SDS011;69435;52.670;13.544;2023-12-04T07:52:49;27.83;;;11.23;;
21334;SDS011;69435;52.670;13.544;2023-12-04T07:55:35;33.37;;;13.10;;
21334;SDS011;69435;52.670;13.544;2023-12-04T07:58:21;37.80;;;15.90;;
21334;SDS011;69435;52.670;13.544;2023-12-04T08:01:07;38.80;;;16.00;;
21334;SDS011;69435;52.670;13.544;2023-12-04T08:03:53;27.47;;;12.13;;
21334;SDS011;69435;52.670;13.544;2023-12-04T08:06:39;26.37;;;11.40;;
21334;SDS011;69435;52.670;13.544;2023-12-04T08:09:26;24.73;;;11.13;;
21334;SDS011;69435;52.670;13.544;2023-12-04T08:12:12;24.90;;;11.40;;
21334;SDS011;69435;52.670;13.544;2023-12-04T08:14:58;25.03;;;11.70;;
21334;SDS011;69435;52.670;13.544;2023-12-04T08:17:44;20.47;;;10.77;;
21334;SDS011;69435;52.670;13.544;2023-12-04T08:20:30;24.83;;;11.83;;
21334;SDS011;69435;52.670;13.544;2023-12-04T08:23:16;22.47;;;9.37;;
21334;SDS011;69435;52.670;13.544;2023-12-04T08:26:03;21.17;;;10.10;;
21334;SDS011;69435;52.670;13.544;2023-12-04T08:28:49;29.00;;;10.63;;
21334;SDS011;69435;52.670;13.544;2023-12-04T08:31:37;21.47;;;10.30;;
21334;SDS011;69435;52.670;13.544;2023-12-04T08:34:24;18.60;;;10.10;;
21334;SDS011;69435;52.670;13.544;2023-12-04T08:37:10;24.40;;;10.87;;
21334;SDS011;69435;52.670;13.544;2023-12-04T08:39:56;20.37;;;10.77;;
21334;SDS011;69435;52.670;13.544;2023-12-04T08:42:42;23.23;;;9.80;;
21334;SDS011;69435;52.670;13.544;2023-12-04T08:45:30;19.07;;;9.83;;
21334;SDS011;69435;52.670;13.544;2023-12-04T08:48:16;22.03;;;10.43;;
21334;SDS011;69435;52.670;13.544;2023-12-04T08:51:02;17.90;;;9.47;;
21334;SDS011;69435;52.670;13.544;2023-12-04T08:53:49;23.53;;;10.53;;
21334;SDS011;69435;52.670;13.544;2023-12-04T08:56:35;22.50;;;9.33;;
21334;SDS011;69435;52.670;13.544;2023-12-04T08:59:21;22.87;;;9.80;;
21334;SDS011;69435;52.670;13.544;2023-12-04T09:02:07;23.33;;;10.60;;
21334;SDS011;69435;52.670;13.544;2023-12-04T09:04:53;22.30;;;10.20;;
21334;SDS011;69435;52.670;13.544;2023-12-04T09:07:39;23.67;;;10.03;;
21334;SDS011;69435;52.670;13.544;2023-12-04T09:10:25;27.67;;;10.83;;
21334;SDS011;69435;52.670;13.544;2023-12-04T09:13:11;25.50;;;11.37;;
21334;SDS011;69435;52.670;13.544;2023-12-04T09:15:57;27.13;;;12.20;;
21334;SDS011;69435;52.670;13.544;2023-12-04T09:18:43;22.70;;;11.23;;
21334;SDS011;69435;52.670;13.544;2023-12-04T09:21:29;37.03;;;11.80;;
21334;SDS011;69435;52.670;13.544;2023-12-04T09:24:15;31.80;;;13.13;;
21334;SDS011;69435;52.670;13.544;2023-12-04T09:27:01;27.73;;;13.17;;
21334;SDS011;69435;52.670;13.544;2023-12-04T09:29:48;27.67;;;12.40;;
21334;SDS011;69435;52.670;13.544;2023-12-04T09:32:34;19.67;;;9.93;;
21334;SDS011;69435;52.670;13.544;2023-12-04T09:35:20;22.53;;;11.03;;
21334;SDS011;69435;52.670;13.544;2023-12-04T09:38:06;18.00;;;9.93;;
21334;SDS011;69435;52.670;13.544;2023-12-04T09:40:52;17.70;;;9.43;;
21334;SDS011;69435;52.670;13.544;2023-12-04T09:43:44;17.33;;;10.13;;
21334;SDS011;69435;52.670;13.544;2023-12-04T09:46:31;17.93;;;9.13;;
21334;SDS011;69435;52.670;13.544;2023-12-04T09:49:19;22.20;;;10.33;;
21334;SDS011;69435;52.670;13.544;2023-12-04T09:52:06;14.67;;;9.33;;
21334;SDS011;69435;52.670;13.544;2023-12-04T09:54:53;16.50;;;9.00;;
21334;SDS011;69435;52.670;13.544;2023-12-04T09:57:39;16.90;;;9.10;;
21334;SDS011;69435;52.670;13.544;2023-12-04T10:00:25;19.63;;;10.13;;
21334;SDS011;69435;52.670;13.544;2023-12-04T10:03:13;19.23;;;9.10;;
21334;SDS011;69435;52.670;13.544;2023-12-04T10:05:59;14.73;;;8.00;;
21334;SDS011;69435;52.670;13.544;2023-12-04T10:08:46;17.37;;;9.10;;
21334;SDS011;69435;52.670;13.544;2023-12-04T10:11:32;18.00;;;8.77;;
21334;SDS011;69435;52.670;13.544;2023-12-04T10:14:18;16.43;;;9.07;;
21334;SDS011;69435;52.670;13.544;2023-12-04T10:17:15;17.23;;;9.33;;
21334;SDS011;69435;52.670;13.544;2023-12-04T10:20:07;15.13;;;8.90;;
21334;SDS011;69435;52.670;13.544;2023-12-04T10:22:58;20.80;;;9.10;;
21334;SDS011;69435;52.670;13.544;2023-12-04T10:25:47;19.10;;;8.97;;
21334;SDS011;69435;52.670;13.544;2023-12-04T10:28:37;16.70;;;9.03;;
21334;SDS011;69435;52.670;13.544;2023-12-04T10:31:24;14.83;;;8.37;;
21334;SDS011;69435;52.670;13.544;2023-12-04T10:34:10;14.43;;;8.33;;
21334;SDS011;69435;52.670;13.544;2023-12-04T10:36:56;19.00;;;10.50;;
21334;SDS011;69435;52.670;13.544;2023-12-04T10:39:47;15.73;;;8.43;;
21334;SDS011;69435;52.670;13.544;2023-12-04T10:42:37;19.57;;;9.53;;
21334;SDS011;69435;52.670;13.544;2023-12-04T10:45:23;17.17;;;9.57;;
21334;SDS011;69435;52.670;13.544;2023-12-04T10:48:09;12.50;;;7.47;;
21334;SDS011;69435;52.670;13.544;2023-12-04T10:50:57;15.73;;;9.83;;
21334;SDS011;69435;52.670;13.544;2023-12-04T10:53:44;16.33;;;8.60;;
21334;SDS011;69435;52.670;13.544;2023-12-04T10:56:37;13.17;;;8.77;;
21334;SDS011;69435;52.670;13.544;2023-12-04T10:59:28;15.43;;;8.70;;
21334;SDS011;69435;52.670;13.544;2023-12-04T11:02:25;10.97;;;7.40;;
21334;SDS011;69435;52.670;13.544;2023-12-04T11:05:14;18.67;;;9.40;;
21334;SDS011;69435;52.670;13.544;2023-12-04T11:08:07;14.23;;;7.90;;
21334;SDS011;69435;52.670;13.544;2023-12-04T11:11:03;10.73;;;7.97;;
21334;SDS011;69435;52.670;13.544;2023-12-04T11:13:54;17.83;;;8.93;;
21334;SDS011;69435;52.670;13.544;2023-12-04T11:16:47;11.80;;;7.47;;
21334;SDS011;69435;52.670;13.544;2023-12-04T11:22:45;15.63;;;8.03;;
21334;SDS011;69435;52.670;13.544;2023-12-04T11:25:33;14.87;;;8.23;;
21334;SDS011;69435;52.670;13.544;2023-12-04T11:28:20;14.77;;;7.87;;
21334;SDS011;69435;52.670;13.544;2023-12-04T11:31:07;13.90;;;7.03;;
21334;SDS011;69435;52.670;13.544;2023-12-04T11:33:54;12.93;;;8.27;;
21334;SDS011;69435;52.670;13.544;2023-12-04T11:36:48;13.13;;;7.70;;
21334;SDS011;69435;52.670;13.544;2023-12-04T11:39:34;10.37;;;7.10;;
21334;SDS011;69435;52.670;13.544;2023-12-04T11:42:24;15.53;;;9.27;;
21334;SDS011;69435;52.670;13.544;2023-12-04T11:45:17;13.00;;;7.50;;
21334;SDS011;69435;52.670;13.544;2023-12-04T11:48:05;13.67;;;8.50;;
21334;SDS011;69435;52.670;13.544;2023-12-04T11:50:56;9.70;;;7.17;;
21334;SDS011;69435;52.670;13.544;2023-12-04T11:53:43;10.97;;;7.57;;
21334;SDS011;69435;52.670;13.544;2023-12-04T11:56:30;16.47;;;7.57;;
21334;SDS011;69435;52.670;13.544;2023-12-04T11:59:16;13.87;;;8.07;;
21334;SDS011;69435;52.670;13.544;2023-12-04T12:02:02;15.20;;;8.00;;
21334;SDS011;69435;52.670;13.544;2023-12-04T12:04:53;10.60;;;7.47;;
21334;SDS011;69435;52.670;13.544;2023-12-04T12:07:40;11.83;;;8.00;;
21334;SDS011;69435;52.670;13.544;2023-12-04T12:10:27;10.10;;;7.50;;
21334;SDS011;69435;52.670;13.544;2023-12-04T12:13:14;11.47;;;7.70;;
21334;SDS011;69435;52.670;13.544;2023-12-04T12:16:01;12.00;;;7.30;;
21334;SDS011;69435;52.670;13.544;2023-12-04T12:18:48;12.03;;;7.37;;
21334;SDS011;69435;52.670;13.544;2023-12-04T12:21:35;11.37;;;7.73;;
21334;SDS011;69435;52.670;13.544;2023-12-04T12:24:22;10.30;;;7.47;;
21334;SDS011;69435;52.670;13.544;2023-12-04T12:27:11;11.03;;;7.73;;
21334;SDS011;69435;52.670;13.544;2023-12-04T12:29:57;12.23;;;7.67;;
21334;SDS011;69435;52.670;13.544;2023-12-04T12:32:43;12.97;;;7.77;;
21334;SDS011;69435;52.670;13.544;2023-12-04T12:35:29;12.60;;;7.63;;
21334;SDS011;69435;52.670;13.544;2023-12-04T12:38:16;11.37;;;7.00;;
21334;SDS011;69435;52.670;13.544;2023-12-04T12:41:07;10.90;;;6.93;;
21334;SDS011;69435;52.670;13.544;2023-12-04T12:43:55;15.53;;;7.53;;
21334;SDS011;69435;52.670;13.544;2023-12-04T12:46:42;9.97;;;6.53;;
21334;SDS011;69435;52.670;13.544;2023-12-04T12:49:32;10.90;;;7.43;;
21334;SDS011;69435;52.670;13.544;2023-12-04T12:52:21;11.10;;;7.47;;
21334;SDS011;69435;52.670;13.544;2023-12-04T12:55:07;9.60;;;6.83;;
21334;SDS011;69435;52.670;13.544;2023-12-04T12:57:56;11.27;;;7.47;;
21334;SDS011;69435;52.670;13.544;2023-12-04T13:00:43;14.37;;;7.50;;
21334;SDS011;69435;52.670;13.544;2023-12-04T13:03:30;11.20;;;7.47;;
21334;SDS011;69435;52.670;13.544;2023-12-04T13:06:19;10.60;;;7.67;;
21334;SDS011;69435;52.670;13.544;2023-12-04T13:09:05;12.33;;;7.83;;
21334;SDS011;69435;52.670;13.544;2023-12-04T13:11:51;16.27;;;8.73;;
21334;SDS011;69435;52.670;13.544;2023-12-04T13:14:38;13.77;;;8.23;;
21334;SDS011;69435;52.670;13.544;2023-12-04T13:17:24;10.87;;;7.43;;
21334;SDS011;69435;52.670;13.544;2023-12-04T13:20:10;14.83;;;8.10;;
21334;SDS011;69435;52.670;13.544;2023-12-04T13:22:58;8.57;;;6.80;;
21334;SDS011;69435;52.670;13.544;2023-12-04T13:25:44;12.07;;;7.57;;
21334;SDS011;69435;52.670;13.544;2023-12-04T13:28:30;13.27;;;7.83;;
21334;SDS011;69435;52.670;13.544;2023-12-04T13:31:17;12.27;;;7.60;;
21334;SDS011;69435;52.670;13.544;2023-12-04T13:34:05;18.40;;;9.10;;
21334;SDS011;69435;52.670;13.544;2023-12-04T13:36:52;13.27;;;7.47;;
21334;SDS011;69435;52.670;13.544;2023-12-04T13:39:38;13.63;;;8.57;;
21334;SDS011;69435;52.670;13.544;2023-12-04T13:42:32;21.50;;;9.87;;
21334;SDS011;69435;52.670;13.544;2023-12-04T13:45:37;12.90;;;8.33;;
21334;SDS011;69435;52.670;13.544;2023-12-04T13:48:24;13.87;;;7.80;;
21334;SDS011;69435;52.670;13.544;2023-12-04T13:51:10;10.73;;;7.67;;
21334;SDS011;69435;52.670;13.544;2023-12-04T13:53:57;12.03;;;7.73;;
21334;SDS011;69435;52.670;13.544;2023-12-04T13:56:54;12.57;;;8.07;;
21334;SDS011;69435;52.670;13.544;2023-12-04T13:59:41;12.97;;;7.57;;
21334;SDS011;69435;52.670;13.544;2023-12-04T14:02:27;12.73;;;8.00;;
21334;SDS011;69435;52.670;13.544;2023-12-04T14:05:13;16.10;;;8.10;;
21334;SDS011;69435;52.670;13.544;2023-12-04T14:08:01;15.47;;;8.07;;
21334;SDS011;69435;52.670;13.544;2023-12-04T14:10:49;15.87;;;7.97;;
21334;SDS011;69435;52.670;13.544;2023-12-04T14:13:35;10.13;;;6.87;;
21334;SDS011;69435;52.670;13.544;2023-12-04T14:16:21;16.43;;;9.27;;
21334;SDS011;69435;52.670;13.544;2023-12-04T14:19:07;15.10;;;8.00;;
21334;SDS011;69435;52.670;13.544;2023-12-04T14:21:53;13.77;;;8.43;;
21334;SDS011;69435;52.670;13.544;2023-12-04T14:24:39;12.73;;;7.90;;
21334;SDS011;69435;52.670;13.544;2023-12-04T14:27:26;15.00;;;9.10;;
21334;SDS011;69435;52.670;13.544;2023-12-04T14:30:12;13.80;;;9.57;;
21334;SDS011;69435;52.670;13.544;2023-12-04T14:32:59;10.53;;;7.63;;
21334;SDS011;69435;52.670;13.544;2023-12-04T14:35:45;13.37;;;7.80;;
21334;SDS011;69435;52.670;13.544;2023-12-04T14:38:32;26.47;;;13.47;;
21334;SDS011;69435;52.670;13.544;2023-12-04T14:41:20;18.33;;;10.73;;
21334;SDS011;69435;52.670;13.544;2023-12-04T14:44:06;15.77;;;9.47;;
21334;SDS011;69435;52.670;13.544;2023-12-04T14:46:52;18.40;;;9.63;;
21334;SDS011;69435;52.670;13.544;2023-12-04T14:49:38;15.43;;;10.17;;
21334;SDS011;69435;52.670;13.544;2023-12-04T14:52:24;16.43;;;9.47;;
21334;SDS011;69435;52.670;13.544;2023-12-04T14:55:13;12.63;;;8.30;;
21334;SDS011;69435;52.670;13.544;2023-12-04T14:58:08;15.77;;;9.30;;
21334;SDS011;69435;52.670;13.544;2023-12-04T15:01:20;14.37;;;8.47;;
21334;SDS011;69435;52.670;13.544;2023-12-04T15:04:24;12.50;;;7.70;;
21334;SDS011;69435;52.670;13.544;2023-12-04T15:07:29;15.33;;;8.03;;
21334;SDS011;69435;52.670;13.544;2023-12-04T15:10:15;13.60;;;7.87;;
21334;SDS011;69435;52.670;13.544;2023-12-04T15:13:04;16.90;;;6.50;;
21334;SDS011;69435;52.670;13.544;2023-12-04T15:16:10;11.30;;;7.77;;
21334;SDS011;69435;52.670;13.544;2023-12-04T15:18:59;13.07;;;7.97;;
21334;SDS011;69435;52.670;13.544;2023-12-04T15:22:05;15.43;;;7.33;;
21334;SDS011;69435;52.670;13.544;2023-12-04T15:24:51;13.13;;;7.50;;
21334;SDS011;69435;52.670;13.544;2023-12-04T15:27:37;15.90;;;8.40;;
21334;SDS011;69435;52.670;13.544;2023-12-04T15:30:23;12.63;;;8.30;;
21334;SDS011;69435;52.670;13.544;2023-12-04T15:33:09;12.63;;;8.53;;
21334;SDS011;69435;52.670;13.544;2023-12-04T15:35:56;16.30;;;8.77;;
21334;SDS011;69435;52.670;13.544;2023-12-04T15:38:42;20.83;;;10.03;;
21334;SDS011;69435;52.670;13.544;2023-12-04T15:41:29;20.43;;;8.90;;
21334;SDS011;69435;52.670;13.544;2023-12-04T15:44:15;14.27;;;7.43;;
21334;SDS011;69435;52.670;13.544;2023-12-04T15:47:01;14.40;;;8.47;;
21334;SDS011;69435;52.670;13.544;2023-12-04T15:49:47;16.87;;;8.33;;
21334;SDS011;69435;52.670;13.544;2023-12-04T15:52:34;15.03;;;8.33;;
21334;SDS011;69435;52.670;13.544;2023-12-04T15:55:25;17.17;;;9.27;;
21334;SDS011;69435;52.670;13.544;2023-12-04T15:58:14;18.50;;;9.33;;
21334;SDS011;69435;52.670;13.544;2023-12-04T16:01:01;16.87;;;9.50;;
21334;SDS011;69435;52.670;13.544;2023-12-04T16:03:49;16.67;;;9.50;;
21334;SDS011;69435;52.670;13.544;2023-12-04T16:06:35;18.53;;;8.90;;
21334;SDS011;69435;52.670;13.544;2023-12-04T16:09:22;16.90;;;8.60;;
21334;SDS011;69435;52.670;13.544;2023-12-04T16:12:10;17.43;;;8.87;;
21334;SDS011;69435;52.670;13.544;2023-12-04T16:14:59;13.23;;;8.60;;
21334;SDS011;69435;52.670;13.544;2023-12-04T16:17:45;15.57;;;8.63;;